CheckWX is a tool to help pilots better visualize weather data.  It is not intended as a substitute for an official pre-flight weather briefing.

05:15:59 UTC

RPLB METAR
Subic Bay International Airport
Olongapo City, Philippines
Current

1 hour ago

RPLB 200400Z 08015KT 9999 FEW020 34/19 Q1013 NOSIG RMK A2991
Observed
Mar-20 @ 04:00 UTC
Wind
  • 080° at 15 KTS
Visibility
10,000+ meters
Flight Rules
VFR
Cloud Levels
  • Few at 2,000' AGL
Temperature
34°C / 93°F
Dewpoint
19°C / 66°F
Humidity
41%
Altimeter
29.91" Hg
Pressure
1012.92 hPa
Previous

2 hours ago

RPLB 200300Z 07011KT 030V110 9999 FEW020 33/19 Q1014 NOSIG RMK A2994
Observed
Mar-20 @ 03:00 UTC
Wind
  • 070° at 11 KTS
Visibility
10,000+ meters
Flight Rules
VFR
Cloud Levels
  • Few at 2,000' AGL
Temperature
33°C / 91°F
Dewpoint
19°C / 66°F
Humidity
44%
Altimeter
29.94" Hg
Pressure
1013.92 hPa
Previous

3 hours ago

RPLB 200200Z 09014KT 060V120 9999 FEW020 31/19 Q1015 NOSIG RMK A2997
Observed
Mar-20 @ 02:00 UTC
Wind
  • 090° at 14 KTS
Visibility
10,000+ meters
Flight Rules
VFR
Cloud Levels
  • Few at 2,000' AGL
Temperature
31°C / 88°F
Dewpoint
19°C / 66°F
Humidity
49%
Altimeter
29.97" Hg
Pressure
1014.92 hPa